Time;durP1;ratioP1;P1;durP2;ratioP2;P2;SDS_P1;SDS_P2;PMS_P1;PMS_P2;Temp;Humidity;BMP_temperature;BMP_pressure;BME280_temperature;BME280_humidity;BME280_pressure;Samples;Min_cycle;Max_cycle;Signal;HPM_P1;HPM_P2
2023/04/01 00:01:44;;;;;;;35.25;19.55;;;;;;;13.30;44.93;94101.06;5027722;28;20467;-81
2023/04/01 00:04:10;;;;;;;38.78;19.30;;;;;;;13.19;45.07;94098.84;5027325;28;20070;-80
2023/04/01 00:06:35;;;;;;;31.80;17.42;;;;;;;13.15;44.96;94109.31;5026114;28;20104;-80
2023/04/01 00:09:01;;;;;;;34.03;17.58;;;;;;;13.13;45.30;94111.78;5027370;28;20705;-81
2023/04/01 00:11:27;;;;;;;28.67;17.63;;;;;;;13.09;45.18;94111.19;5027484;28;20492;-80
2023/04/01 00:13:53;;;;;;;32.83;16.92;;;;;;;13.00;45.29;94125.06;5026248;28;20029;-80
2023/04/01 00:16:18;;;;;;;28.33;16.38;;;;;;;12.89;45.31;94111.03;5026110;28;20075;-82
2023/04/01 00:18:44;;;;;;;29.20;16.52;;;;;;;12.86;45.25;94112.00;5009855;28;20037;-81
2023/04/01 00:21:09;;;;;;;26.45;15.13;;;;;;;12.80;45.31;94106.38;5027412;28;20017;-81
2023/04/01 00:23:35;;;;;;;27.77;16.20;;;;;;;12.79;45.43;94104.84;5027401;28;20025;-81
2023/04/01 00:26:01;;;;;;;24.70;14.48;;;;;;;12.76;45.54;94100.25;5027184;28;20041;-81
2023/04/01 00:28:27;;;;;;;23.30;14.85;;;;;;;12.71;45.46;94096.16;5027330;28;20025;-81
2023/04/01 00:30:52;;;;;;;28.17;16.15;;;;;;;12.68;45.66;94099.09;5029303;28;20428;-81
2023/04/01 00:33:18;;;;;;;23.52;14.82;;;;;;;12.66;45.92;94098.81;5038294;28;20022;-81
2023/04/01 00:35:44;;;;;;;27.67;16.88;;;;;;;12.55;45.84;94093.81;5025726;28;20029;-81
2023/04/01 00:38:11;;;;;;;26.17;15.13;;;;;;;12.55;46.36;94101.31;5027324;28;20018;-80
2023/04/01 00:40:44;;;;;;;22.98;14.52;;;;;;;12.52;46.40;94085.75;5027191;28;20025;-82
2023/04/01 00:43:19;;;;;;;22.70;15.23;;;;;;;12.50;46.87;94075.16;5026692;28;20037;-80
2023/04/01 00:45:45;;;;;;;23.45;14.48;;;;;;;12.45;46.44;94071.09;5026664;28;20049;-82
2023/04/01 00:48:15;;;;;;;26.33;15.57;;;;;;;12.45;46.90;94073.06;5025361;28;20099;-81
2023/04/01 00:50:44;;;;;;;23.35;14.52;;;;;;;12.41;46.57;94059.47;5025971;28;20033;-82
2023/04/01 00:53:10;;;;;;;23.65;15.43;;;;;;;12.40;46.79;94068.97;5025035;28;20032;-80
2023/04/01 00:55:40;;;;;;;27.48;20.45;;;;;;;12.35;46.92;94066.09;5027047;28;20069;-82
2023/04/01 00:58:10;;;;;;;26.48;18.67;;;;;;;12.16;47.21;94046.16;5008657;28;20041;-81
2023/04/01 01:00:36;;;;;;;27.45;17.83;;;;;;;12.00;47.85;94043.81;5025189;28;20021;-81
2023/04/01 01:03:02;;;;;;;28.80;17.35;;;;;;;11.78;48.74;94046.78;5025509;28;20029;-81
2023/04/01 01:06:12;;;;;;;26.20;17.10;;;;;;;11.77;48.67;94037.75;5025591;28;20044;-81
2023/04/01 01:09:09;;;;;;;25.05;14.65;;;;;;;11.54;49.33;94030.22;5024137;28;20120;-81
2023/04/01 01:11:54;;;;;;;21.73;13.98;;;;;;;11.56;49.25;94025.75;5024805;28;20048;-80
2023/04/01 01:14:23;;;;;;;20.52;13.77;;;;;;;11.44;49.71;94027.50;5024582;28;20021;-80
2023/04/01 01:16:56;;;;;;;22.05;13.93;;;;;;;11.32;49.76;94028.44;5026935;28;20447;-82
2023/04/01 01:19:27;;;;;;;19.80;12.80;;;;;;;11.41;49.66;94025.69;5024665;28;20079;-81
2023/04/01 01:22:11;;;;;;;23.20;14.30;;;;;;;11.52;49.61;94024.41;5026366;28;20026;-81
2023/04/01 01:24:42;;;;;;;;;;;;;;;11.58;49.39;94014.28;5008844;28;20060;-81
2023/04/01 01:27:13;;;;;;;20.50;11.38;;;;;;;11.56;49.44;94003.75;5035454;28;19971;-82
2023/04/01 01:29:47;;;;;;;22.77;11.70;;;;;;;11.34;50.07;93998.47;5025190;28;20585;-81
2023/04/01 01:32:31;;;;;;;21.80;11.00;;;;;;;11.21;50.76;94000.66;5025867;28;20049;-80
2023/04/01 01:35:14;;;;;;;;;;;;;;;11.19;50.81;94003.13;5029229;28;20021;-81
2023/04/01 01:37:40;;;;;;;18.48;10.50;;;;;;;10.98;51.51;94006.84;5026807;28;19913;-81
2023/04/01 01:40:10;;;;;;;17.70;10.73;;;;;;;10.94;52.02;94009.75;5024778;28;20082;-81
2023/04/01 01:42:39;;;;;;;18.35;10.77;;;;;;;10.95;51.54;94002.25;5024649;28;20113;-81
2023/04/01 01:45:06;;;;;;;19.90;11.38;;;;;;;11.08;51.29;94008.34;5024132;28;20107;-81
2023/04/01 01:47:34;;;;;;;15.93;10.43;;;;;;;11.18;50.95;94007.09;5024371;28;20033;-81
2023/04/01 01:49:59;;;;;;;18.50;10.13;;;;;;;11.15;50.94;94002.53;5024617;28;20029;-80
2023/04/01 01:52:28;;;;;;;17.75;9.68;;;;;;;10.95;51.54;94005.00;5024064;28;20043;-81
2023/04/01 01:54:56;;;;;;;19.40;10.07;;;;;;;11.07;51.22;94004.84;5024288;28;20021;-80
2023/04/01 01:57:36;;;;;;;17.17;9.57;;;;;;;11.01;51.39;94003.94;5023441;28;20092;-80
2023/04/01 02:00:13;;;;;;;17.80;9.57;;;;;;;11.08;51.07;93989.88;5024598;28;20120;-80
2023/04/01 02:02:48;;;;;;;14.38;9.02;;;;;;;11.25;50.92;94000.50;5023841;28;20033;-81
2023/04/01 02:05:23;;;;;;;16.55;9.25;;;;;;;11.34;50.60;93994.97;5025800;28;20048;-81
2023/04/01 02:08:15;;;;;;;16.45;9.82;;;;;;;11.38;50.45;93973.56;5025453;28;20017;-81
2023/04/01 02:10:42;;;;;;;14.73;9.65;;;;;;;11.28;50.70;93969.31;5023701;28;20049;-81
2023/04/01 02:13:16;;;;;;;17.00;9.20;;;;;;;11.39;50.44;93980.56;5024474;28;20571;-81
2023/04/01 02:15:43;;;;;;;13.45;8.27;;;;;;;11.38;50.58;93977.06;5023344;28;20079;-80
2023/04/01 02:18:09;;;;;;;13.95;8.35;;;;;;;11.41;49.88;93978.09;5023725;28;20247;-80
2023/04/01 02:20:35;;;;;;;14.52;9.07;;;;;;;11.51;49.77;93974.09;5034407;28;20014;-81
2023/04/01 02:23:01;;;;;;;11.63;7.55;;;;;;;11.53;49.30;93965.41;5025558;28;20527;-80
2023/04/01 02:25:29;;;;;;;15.30;8.52;;;;;;;11.62;49.18;93973.59;5023672;28;20040;-80
2023/04/01 02:27:57;;;;;;;13.70;7.97;;;;;;;11.67;49.29;93975.72;5023598;28;20025;-80
2023/04/01 02:30:23;;;;;;;16.42;8.68;;;;;;;11.74;49.18;93985.59;5024114;28;20104;-81
2023/04/01 02:32:49;;;;;;;18.08;9.52;;;;;;;11.75;49.17;93976.13;5023339;28;20037;-80
2023/04/01 02:35:16;;;;;;;10.88;7.80;;;;;;;11.79;49.11;93985.72;5023989;28;20431;-81
2023/04/01 02:37:46;;;;;;;13.43;9.15;;;;;;;11.82;49.37;93981.31;5006961;28;20045;-81
2023/04/01 02:40:13;;;;;;;19.30;12.23;;;;;;;11.87;49.55;93984.19;5023491;28;20041;-80
2023/04/01 02:42:39;;;;;;;17.02;11.55;;;;;;;11.90;49.39;93999.78;5023277;28;20029;-80
2023/04/01 02:45:05;;;;;;;17.70;12.35;;;;;;;11.93;49.74;94000.84;5023497;28;20076;-82
2023/04/01 02:47:31;;;;;;;21.55;13.85;;;;;;;11.89;49.53;93987.25;5025225;28;20075;-80
2023/04/01 02:49:57;;;;;;;23.63;16.48;;;;;;;11.90;49.62;94010.78;5023538;28;20033;-80
2023/04/01 02:52:29;;;;;;;25.27;17.08;;;;;;;11.84;49.66;93998.13;5025276;28;20033;-80
2023/04/01 02:54:56;;;;;;;26.25;16.42;;;;;;;11.86;49.40;94010.19;5024397;28;20049;-80
2023/04/01 02:57:21;;;;;;;25.38;16.98;;;;;;;11.89;49.28;94003.00;5024579;28;20107;-80
2023/04/01 02:59:47;;;;;;;24.02;16.67;;;;;;;11.88;49.24;94010.50;5024515;28;20403;-80
2023/04/01 03:02:12;;;;;;;24.98;16.10;;;;;;;11.85;49.46;94013.44;5024931;28;20040;-81
2023/04/01 03:04:38;;;;;;;26.13;15.90;;;;;;;11.87;49.01;94016.47;5024816;28;20029;-81
2023/04/01 03:07:03;;;;;;;23.05;16.20;;;;;;;11.79;49.44;94024.28;5024514;28;20029;-80
2023/04/01 03:09:29;;;;;;;23.50;16.98;;;;;;;11.61;49.94;94021.63;5025261;28;20022;-81
2023/04/01 03:11:55;;;;;;;25.77;17.25;;;;;;;11.61;50.32;94019.63;5022939;28;20022;-80
2023/04/01 03:14:20;;;;;;;25.17;16.40;;;;;;;11.69;50.31;94014.53;5031063;28;20108;-80
2023/04/01 03:16:46;;;;;;;31.88;19.00;;;;;;;11.69;50.28;94012.53;5028817;28;20022;-79
2023/04/01 03:19:11;;;;;;;23.95;16.35;;;;;;;11.67;50.21;94025.25;5023453;28;20044;-79
2023/04/01 03:21:37;;;;;;;31.85;18.00;;;;;;;11.54;50.74;94024.72;5024484;28;20064;-80
2023/04/01 03:24:02;;;;;;;29.45;17.65;;;;;;;11.52;50.49;94024.41;5022818;28;20472;-81
2023/04/01 03:26:28;;;;;;;32.30;18.35;;;;;;;11.57;50.68;94030.03;5024764;28;20033;-81
2023/04/01 03:28:53;;;;;;;44.85;21.38;;;;;;;11.58;50.74;94022.53;5024593;28;20022;-81
2023/04/01 03:31:19;;;;;;;45.47;21.52;;;;;;;11.61;50.68;94019.63;5027216;28;20075;-80
2023/04/01 03:33:45;;;;;;;33.25;17.00;;;;;;;11.62;50.18;94023.13;5028214;28;20026;-80
2023/04/01 03:36:12;;;;;;;35.97;17.17;;;;;;;11.65;50.48;94014.72;5028059;28;20337;-80
2023/04/01 03:38:38;;;;;;;32.20;16.17;;;;;;;11.67;50.20;94003.25;5028148;28;20472;-81
2023/04/01 03:41:03;;;;;;;32.35;18.27;;;;;;;11.62;50.19;93976.34;5027544;28;20075;-82
2023/04/01 03:43:29;;;;;;;23.20;12.77;;;;;;;11.69;50.58;93976.00;5028317;28;20037;-80
2023/04/01 03:45:54;;;;;;;16.98;11.15;;;;;;;11.67;51.12;93959.19;5027349;28;20095;-80
2023/04/01 03:48:20;;;;;;;14.00;9.73;;;;;;;11.68;51.40;93950.47;5026951;28;20026;-81
2023/04/01 03:50:46;;;;;;;19.02;9.63;;;;;;;11.71;51.63;93948.78;5026405;28;20080;-80
2023/04/01 03:53:12;;;;;;;17.63;11.10;;;;;;;11.70;51.83;93937.00;5026754;28;20029;-81
2023/04/01 03:55:38;;;;;;;16.33;10.55;;;;;;;11.71;51.96;93937.75;5027788;28;20411;-80
2023/04/01 03:58:07;;;;;;;17.88;11.68;;;;;;;11.67;52.19;93932.41;5027005;28;20099;-80
2023/04/01 04:00:32;;;;;;;16.67;10.15;;;;;;;11.50;51.61;93912.03;5027520;28;20041;-81
2023/04/01 04:02:58;;;;;;;14.18;9.73;;;;;;;11.53;52.00;93915.84;5027281;28;20033;-81
2023/04/01 04:05:24;;;;;;;15.95;9.98;;;;;;;11.54;52.18;93907.13;5027893;28;20026;-81
2023/04/01 04:07:50;;;;;;;15.23;9.40;;;;;;;11.54;52.26;93903.63;5027834;28;20022;-80
2023/04/01 04:10:16;;;;;;;17.10;9.98;;;;;;;11.56;51.81;93903.91;5035592;28;20417;-81
2023/04/01 04:12:41;;;;;;;15.30;9.77;;;;;;;11.58;51.73;93904.19;5028487;28;20057;-81
2023/04/01 04:15:07;;;;;;;14.50;9.10;;;;;;;11.47;51.69;93896.47;5029215;28;20029;-80
2023/04/01 04:17:32;;;;;;;14.13;8.70;;;;;;;11.35;51.71;93889.94;5028913;28;20037;-81
2023/04/01 04:19:58;;;;;;;15.85;9.38;;;;;;;11.39;51.59;93882.28;5027810;28;20535;-81
2023/04/01 04:22:23;;;;;;;15.50;8.43;;;;;;;11.43;51.86;93888.38;5026304;28;20048;-80
2023/04/01 04:24:49;;;;;;;16.92;8.98;;;;;;;11.46;52.38;93877.66;5027134;28;20030;-80
2023/04/01 04:27:14;;;;;;;14.68;9.60;;;;;;;11.47;52.35;93881.91;5027339;28;20135;-80
2023/04/01 04:29:40;;;;;;;13.60;8.63;;;;;;;11.50;52.33;93878.25;5027220;28;20091;-80
2023/04/01 04:32:05;;;;;;;13.35;9.73;;;;;;;11.51;52.08;93871.50;5026895;28;20022;-80
2023/04/01 04:34:31;;;;;;;15.52;9.35;;;;;;;11.51;52.35;93868.75;5025754;28;20211;-80
2023/04/01 04:36:57;;;;;;;14.63;8.60;;;;;;;11.44;51.78;93867.13;5025340;28;20128;-80
2023/04/01 04:39:22;;;;;;;15.55;8.70;;;;;;;11.39;51.73;93868.50;5026773;28;20107;-80
2023/04/01 04:41:47;;;;;;;17.77;9.20;;;;;;;11.24;51.99;93859.44;5027150;28;20094;-80
2023/04/01 04:44:13;;;;;;;14.82;9.05;;;;;;;11.29;52.01;93863.53;5025710;28;20044;-81
2023/04/01 04:46:39;;;;;;;14.25;9.30;;;;;;;11.12;51.86;93855.66;5026693;28;20124;-78
2023/04/01 04:49:05;;;;;;;19.40;10.05;;;;;;;10.97;52.67;93852.09;5027251;28;20025;-81
2023/04/01 04:51:33;;;;;;;16.65;9.82;;;;;;;10.87;53.15;93847.84;5026744;28;20022;-80
2023/04/01 04:53:59;;;;;;;19.45;10.02;;;;;;;11.01;53.00;93838.94;5026772;28;20025;-80
2023/04/01 04:56:25;;;;;;;15.35;9.70;;;;;;;11.10;52.81;93846.38;5024749;28;20052;-79
2023/04/01 04:58:51;;;;;;;16.27;9.50;;;;;;;11.06;52.57;93832.03;5025211;28;20140;-79
2023/04/01 05:01:17;;;;;;;16.17;9.48;;;;;;;11.15;52.46;93845.72;5025273;28;20060;-81
2023/04/01 05:03:43;;;;;;;16.58;9.70;;;;;;;11.23;52.45;93841.41;5031792;28;20041;-79
2023/04/01 05:06:09;;;;;;;12.40;9.30;;;;;;;11.29;51.83;93834.03;5026586;28;20026;-81
2023/04/01 05:08:35;;;;;;;19.35;8.80;;;;;;;11.33;51.90;93831.09;5025378;28;20021;-80
2023/04/01 05:11:02;;;;;;;13.07;8.75;;;;;;;11.29;51.10;93822.25;5008580;28;20041;-80
2023/04/01 05:13:28;;;;;;;13.82;8.43;;;;;;;11.31;50.95;93811.56;5026501;28;20036;-80
2023/04/01 05:15:53;;;;;;;13.68;8.18;;;;;;;11.13;51.27;93802.19;5025928;28;20063;-80
2023/04/01 05:18:19;;;;;;;10.93;7.95;;;;;;;11.17;51.23;93804.75;5024613;28;20037;-80
2023/04/01 05:20:52;;;;;;;12.40;8.88;;;;;;;11.14;51.21;93797.47;5024906;28;20042;-80
2023/04/01 05:23:20;;;;;;;13.23;9.20;;;;;;;11.08;51.34;93800.09;5026555;28;20025;-80
2023/04/01 05:25:45;;;;;;;17.33;8.23;;;;;;;11.12;50.99;93795.16;5024530;28;20056;-81
2023/04/01 05:28:11;;;;;;;13.82;8.38;;;;;;;11.13;51.10;93801.44;5026350;28;20033;-81
2023/04/01 05:30:36;;;;;;;10.43;6.95;;;;;;;11.19;50.34;93798.81;5025892;28;20022;-80
2023/04/01 05:33:02;;;;;;;20.05;9.18;;;;;;;11.26;50.76;93799.22;5026196;28;20151;-81
2023/04/01 05:35:28;;;;;;;17.60;11.55;;;;;;;11.34;51.20;93803.13;5025465;28;20400;-81
2023/04/01 05:37:53;;;;;;;12.93;8.05;;;;;;;11.34;50.62;93802.38;5025877;28;20436;-82
2023/04/01 05:40:18;;;;;;;13.85;7.68;;;;;;;11.34;49.92;93794.88;5025415;28;20396;-80
2023/04/01 05:42:44;;;;;;;15.20;8.48;;;;;;;11.28;50.36;93805.00;5025491;28;20021;-81
2023/04/01 05:45:10;;;;;;;12.27;7.50;;;;;;;11.26;50.52;93792.94;5026101;28;20107;-81
2023/04/01 05:47:35;;;;;;;11.65;7.53;;;;;;;11.41;50.29;93793.75;5024262;28;20030;-80
2023/04/01 05:50:00;;;;;;;16.88;7.78;;;;;;;11.51;50.37;93784.19;5025797;28;20095;-80
2023/04/01 05:52:26;;;;;;;15.35;8.65;;;;;;;11.60;50.72;93773.13;5023363;28;20068;-80
2023/04/01 05:54:51;;;;;;;12.93;8.05;;;;;;;11.72;50.15;93771.34;5025550;28;20033;-80
2023/04/01 05:57:17;;;;;;;15.75;7.50;;;;;;;11.85;50.47;93785.63;5030724;28;20041;-80
2023/04/01 05:59:42;;;;;;;16.35;7.65;;;;;;;11.94;49.15;93777.28;5031114;28;20106;-81
2023/04/01 06:02:09;;;;;;;18.30;7.70;;;;;;;12.13;49.21;93779.88;5025733;28;20032;-80
2023/04/01 06:04:39;;;;;;;18.02;7.30;;;;;;;12.34;49.01;93795.25;5023500;28;20026;-80
2023/04/01 06:07:12;;;;;;;11.52;6.90;;;;;;;12.49;48.78;93793.22;5007422;28;20043;-80
2023/04/01 06:09:38;;;;;;;16.17;7.30;;;;;;;12.68;48.66;93785.53;5025396;28;20020;-81
2023/04/01 06:12:22;;;;;;;14.90;7.95;;;;;;;12.85;48.17;93782.28;5025153;28;20026;-80
2023/04/01 06:15:09;;;;;;;17.30;9.02;;;;;;;13.06;47.76;93774.78;5025176;28;20095;-80
2023/04/01 06:18:12;;;;;;;17.65;8.73;;;;;;;13.22;46.97;93772.28;5024607;28;20291;-79
2023/04/01 06:21:22;;;;;;;14.52;7.30;;;;;;;13.38;45.70;93778.50;5024773;28;20030;-79
2023/04/01 06:24:12;;;;;;;12.00;6.68;;;;;;;13.52;45.13;93783.16;4983359;28;20046;-80
2023/04/01 06:26:58;;;;;;;14.27;6.60;;;;;;;13.60;44.52;93772.50;4982752;28;20508;-80
2023/04/01 06:29:47;;;;;;;12.68;4.85;;;;;;;13.73;43.88;93781.16;4982940;28;20109;-80
2023/04/01 06:32:21;;;;;;;13.25;4.88;;;;;;;13.82;43.26;93779.03;4967136;28;20030;-80
2023/04/01 06:34:54;;;;;;;12.85;4.90;;;;;;;13.94;43.15;93777.13;4983296;28;20054;-80
2023/04/01 06:37:28;;;;;;;10.75;5.00;;;;;;;13.98;42.71;93763.09;4967014;28;20145;-80
2023/04/01 06:40:26;;;;;;;9.90;4.47;;;;;;;14.01;42.30;93771.16;4982963;28;20042;-81
2023/04/01 06:43:01;;;;;;;9.18;5.85;;;;;;;14.04;42.19;93772.94;4983003;28;20061;-80
2023/04/01 06:45:59;;;;;;;10.65;5.40;;;;;;;14.17;42.63;93761.53;4982907;28;20034;-81
2023/04/01 06:49:21;;;;;;;17.98;7.45;;;;;;;14.27;42.34;93754.56;4951850;28;20058;-80
2023/04/01 06:51:52;;;;;;;13.15;6.22;;;;;;;14.32;42.00;93736.53;4910107;29;20031;-78
2023/04/01 06:54:21;;;;;;;11.77;6.30;;;;;;;14.40;42.00;93737.59;4912650;29;20091;-79
2023/04/01 06:56:52;;;;;;;8.15;5.53;;;;;;;14.47;41.49;93737.19;4889707;29;20182;-79
2023/04/01 06:59:22;;;;;;;10.10;5.50;;;;;;;14.49;41.53;93739.44;4940632;28;20474;-79
2023/04/01 07:01:53;;;;;;;9.52;5.68;;;;;;;14.57;41.49;93740.53;4982564;28;20038;-79
2023/04/01 07:04:34;;;;;;;8.32;4.47;;;;;;;14.60;41.16;93745.81;4985234;28;20035;-80
2023/04/01 07:07:04;;;;;;;9.25;4.75;;;;;;;14.44;41.16;93754.72;4986897;28;20049;-80
2023/04/01 07:09:37;;;;;;;10.02;4.30;;;;;;;14.59;40.88;93738.03;4986454;28;20034;-80
2023/04/01 07:12:09;;;;;;;10.85;5.28;;;;;;;14.67;41.07;93730.78;4987004;28;20046;-80
2023/04/01 07:14:36;;;;;;;9.70;4.43;;;;;;;14.73;41.01;93730.81;4986533;28;20492;-79
2023/04/01 07:17:07;;;;;;;11.25;5.07;;;;;;;14.68;41.32;93735.09;4986206;28;20128;-80
2023/04/01 07:19:48;;;;;;;13.90;5.15;;;;;;;14.82;41.10;93747.25;4986247;28;20039;-81
2023/04/01 07:22:31;;;;;;;11.02;5.05;;;;;;;14.85;41.18;93749.00;4989365;28;20037;-80
2023/04/01 07:24:57;;;;;;;10.13;4.47;;;;;;;14.94;41.12;93748.06;5027668;28;20026;-79
2023/04/01 07:27:23;;;;;;;11.30;4.70;;;;;;;14.97;41.10;93736.03;5010274;28;20774;-80
2023/04/01 07:29:49;;;;;;;10.73;5.47;;;;;;;15.01;41.27;93728.97;5028302;28;20091;-80
2023/04/01 07:32:45;;;;;;;14.02;5.65;;;;;;;15.04;41.19;93743.84;5028172;28;20029;-81
2023/04/01 07:35:21;;;;;;;11.52;5.20;;;;;;;15.17;41.14;93752.47;5000474;28;20049;-79
2023/04/01 07:38:06;;;;;;;9.90;6.00;;;;;;;15.28;40.85;93751.78;5028276;28;20621;-80
2023/04/01 07:40:49;;;;;;;11.48;4.93;;;;;;;15.29;41.19;93750.53;5028568;28;20048;-81
2023/04/01 07:43:30;;;;;;;9.07;5.80;;;;;;;15.20;41.12;93739.66;5029454;28;20100;-79
2023/04/01 07:46:32;;;;;;;15.18;6.20;;;;;;;15.14;41.27;93737.63;5033178;28;20087;-79
2023/04/01 07:49:00;;;;;;;15.35;5.43;;;;;;;15.23;41.40;93735.91;5030677;28;20042;-79
2023/04/01 07:52:03;;;;;;;15.30;6.43;;;;;;;15.27;41.38;93725.34;5028796;28;20514;-81
2023/04/01 07:54:43;;;;;;;15.13;6.22;;;;;;;15.26;41.65;93738.44;5012700;28;20411;-80
2023/04/01 07:57:18;;;;;;;10.85;5.30;;;;;;;15.25;41.68;93734.13;5026913;28;20175;-81
2023/04/01 07:59:58;;;;;;;11.32;5.63;;;;;;;15.28;41.55;93715.78;5027353;28;20041;-78
2023/04/01 08:02:50;;;;;;;14.32;6.20;;;;;;;15.18;41.62;93706.94;5025558;28;20022;-81
2023/04/01 08:05:19;;;;;;;12.65;5.70;;;;;;;15.14;42.02;93712.72;5026530;28;20040;-80
2023/04/01 08:08:16;;;;;;;8.93;5.03;;;;;;;15.11;42.31;93707.41;5025128;28;20029;-79
2023/04/01 08:11:06;;;;;;;9.60;5.18;;;;;;;15.20;42.22;93698.91;5024806;28;20033;-80
2023/04/01 08:14:03;;;;;;;12.65;6.78;;;;;;;15.26;42.14;93704.47;5026299;28;20029;-80
2023/04/01 08:16:58;;;;;;;13.75;6.10;;;;;;;15.36;41.88;93691.91;5026543;28;20450;-80
2023/04/01 08:19:45;;;;;;;9.15;5.43;;;;;;;15.48;41.74;93681.63;5026287;28;20034;-79
2023/04/01 08:22:17;;;;;;;8.80;4.90;;;;;;;15.46;41.75;93682.13;5025975;28;20204;-79
2023/04/01 08:24:44;;;;;;;13.57;5.50;;;;;;;15.56;41.68;93677.13;5024798;28;20033;-80
2023/04/01 08:27:33;;;;;;;9.10;4.82;;;;;;;15.67;41.49;93677.19;5025632;28;20029;-80
2023/04/01 08:30:20;;;;;;;9.07;5.68;;;;;;;15.89;41.13;93671.69;5020724;28;20041;-79
2023/04/01 08:33:05;;;;;;;10.57;5.65;;;;;;;15.96;41.17;93662.13;5026177;28;20455;-80
2023/04/01 08:35:36;;;;;;;12.02;5.70;;;;;;;16.12;41.23;93655.81;5026218;28;20021;-79
2023/04/01 08:38:14;;;;;;;14.93;6.72;;;;;;;16.33;40.84;93639.66;5024958;28;20118;-80
2023/04/01 08:41:01;;;;;;;10.85;6.75;;;;;;;16.56;40.58;93637.63;5034260;28;20099;-80
2023/04/01 08:43:42;;;;;;;12.02;5.32;;;;;;;17.04;39.99;93625.44;5025088;28;20037;-80
2023/04/01 08:46:26;;;;;;;9.55;5.13;;;;;;;17.37;39.48;93618.19;5025592;28;20408;-79
2023/04/01 08:49:00;;;;;;;13.43;5.25;;;;;;;17.71;38.39;93608.41;5024481;28;20049;-81
2023/04/01 08:51:41;;;;;;;9.23;5.82;;;;;;;18.12;37.91;93604.88;5026442;28;20121;-79
2023/04/01 08:54:31;;;;;;;7.93;5.07;;;;;;;18.45;36.91;93598.22;5025584;28;20161;-81
2023/04/01 08:57:11;;;;;;;7.22;3.20;;;;;;;18.42;33.66;93590.94;4986282;28;1128904;-80
2023/04/01 08:59:47;;;;;;;8.60;2.75;;;;;;;19.05;31.17;93602.94;5025528;28;20393;-80
2023/04/01 09:02:31;;;;;;;9.65;3.40;;;;;;;19.02;32.04;93615.88;5024848;28;20475;-81
2023/04/01 09:05:05;;;;;;;9.50;3.83;;;;;;;18.80;34.09;93618.91;5026512;28;20487;-80
2023/04/01 09:07:45;;;;;;;7.43;3.72;;;;;;;18.89;34.05;93618.56;5026595;28;20037;-80
2023/04/01 09:10:28;;;;;;;5.55;2.80;;;;;;;19.13;32.28;93617.03;5026001;28;20116;-80
2023/04/01 09:13:12;;;;;;;6.43;2.77;;;;;;;19.30;31.52;93609.97;5026539;28;20492;-80
2023/04/01 09:16:09;;;;;;;8.13;2.58;;;;;;;19.41;31.45;93602.75;5026252;28;20268;-79
2023/04/01 09:18:44;;;;;;;7.28;2.88;;;;;;;19.48;31.09;93602.91;5024957;28;20033;-81
2023/04/01 09:21:09;;;;;;;6.93;3.08;;;;;;;19.51;31.64;93601.84;5026140;28;20025;-80
2023/04/01 09:23:53;;;;;;;9.07;3.40;;;;;;;19.57;32.27;93604.56;5024961;28;20419;-79
2023/04/01 09:26:45;;;;;;;8.98;3.75;;;;;;;19.61;32.01;93586.28;5024515;28;20104;-79
2023/04/01 09:29:17;;;;;;;8.48;4.22;;;;;;;19.59;31.99;93588.09;5025581;28;20057;-81
2023/04/01 09:31:51;;;;;;;9.30;4.07;;;;;;;19.64;31.90;93581.69;5025811;28;20026;-80
2023/04/01 09:34:31;;;;;;;8.55;3.88;;;;;;;19.66;32.02;93576.31;5027208;28;20037;-79
2023/04/01 09:37:15;;;;;;;6.55;3.03;;;;;;;19.67;32.00;93571.50;5026872;28;20029;-80
2023/04/01 09:39:42;;;;;;;8.25;3.47;;;;;;;19.73;31.55;93569.41;5026347;28;20041;-80
2023/04/01 09:42:49;;;;;;;6.28;3.35;;;;;;;19.80;31.57;93558.38;5024240;28;20036;-81
2023/04/01 09:45:29;;;;;;;8.45;3.50;;;;;;;19.97;31.01;93560.16;4988681;28;20721;-80
2023/04/01 09:48:05;;;;;;;7.93;3.70;;;;;;;20.12;30.90;93550.00;5026153;28;20033;-80
2023/04/01 09:50:44;;;;;;;8.02;3.58;;;;;;;20.20;30.79;93549.38;5024299;28;20108;-80
2023/04/01 09:53:27;;;;;;;8.50;3.20;;;;;;;20.38;30.90;93540.94;5023980;28;20029;-79
2023/04/01 09:56:09;;;;;;;7.30;4.30;;;;;;;20.52;30.60;93538.94;5024294;28;20495;-79
2023/04/01 09:58:38;;;;;;;8.63;3.77;;;;;;;20.65;30.04;93521.44;5025457;28;20121;-79
2023/04/01 10:01:22;;;;;;;10.90;4.13;;;;;;;20.63;30.00;93529.59;5025232;28;20279;-79
2023/04/01 10:04:25;;;;;;;9.05;4.13;;;;;;;20.64;30.11;93529.06;5025342;28;20025;-80
2023/04/01 10:07:19;;;;;;;8.68;3.63;;;;;;;20.77;29.60;93519.94;5010281;28;20127;-80
2023/04/01 10:09:47;;;;;;;5.85;3.25;;;;;;;20.23;30.47;93514.81;5025561;28;20056;-79
2023/04/01 10:12:27;;;;;;;6.30;2.53;;;;;;;20.16;28.47;93505.06;5024836;28;20056;-80
2023/04/01 10:15:07;;;;;;;7.03;2.15;;;;;;;19.86;27.24;93508.09;5025134;28;20467;-79
2023/04/01 10:17:57;;;;;;;5.80;1.80;;;;;;;19.86;27.45;93489.34;5024035;28;20028;-80
2023/04/01 10:20:38;;;;;;;7.72;2.78;;;;;;;19.71;27.29;93497.44;5023681;28;20484;-80
2023/04/01 10:23:48;;;;;;;6.15;1.65;;;;;;;19.49;27.44;93490.13;5025152;28;20449;-79
2023/04/01 10:26:44;;;;;;;6.63;1.60;;;;;;;19.70;27.28;93462.47;5022899;28;20134;-79
2023/04/01 10:29:28;;;;;;;5.13;2.55;;;;;;;19.58;26.73;93470.28;5032245;28;20044;-80
2023/04/01 10:32:18;;;;;;;5.78;2.05;;;;;;;19.32;26.67;93459.75;5025989;28;20029;-79
2023/04/01 10:35:14;;;;;;;9.95;2.45;;;;;;;19.10;29.05;93446.91;5025413;28;20033;-79
2023/04/01 10:38:19;;;;;;;8.20;2.50;;;;;;;19.16;29.69;93460.75;5023399;28;20030;-80
2023/04/01 10:40:54;;;;;;;8.82;3.03;;;;;;;19.23;29.80;93457.38;5023731;28;20514;-80
2023/04/01 10:43:28;;;;;;;6.47;2.75;;;;;;;19.33;30.38;93449.38;5024976;28;20029;-80
2023/04/01 10:46:09;;;;;;;7.47;2.80;;;;;;;19.27;29.85;93462.63;5024842;28;20128;-80
2023/04/01 10:48:34;;;;;;;9.43;3.67;;;;;;;19.32;29.79;93453.41;5024764;28;20044;-80
2023/04/01 10:51:14;;;;;;;5.60;2.80;;;;;;;19.44;30.16;93445.63;5024617;28;20573;-80
2023/04/01 10:53:49;;;;;;;8.93;3.10;;;;;;;19.37;29.75;93447.75;5023325;28;20022;-82
2023/04/01 10:56:20;;;;;;;10.32;2.92;;;;;;;19.32;30.15;93445.81;5024206;28;20427;-81
2023/04/01 10:59:14;;;;;;;9.48;3.63;;;;;;;19.40;30.54;93461.94;5024598;28;20069;-79
2023/04/01 11:01:55;;;;;;;6.60;3.28;;;;;;;19.39;30.81;93447.25;5024762;28;20037;-81
2023/04/01 11:04:20;;;;;;;9.68;3.80;;;;;;;19.45;31.21;93430.44;5024457;28;20546;-81
2023/04/01 11:07:23;;;;;;;10.00;3.42;;;;;;;19.52;30.93;93429.81;5024286;28;20116;-79
2023/04/01 11:09:51;;;;;;;9.60;3.65;;;;;;;19.51;31.07;93443.00;5024924;28;20532;-80
2023/04/01 11:12:16;;;;;;;5.82;3.65;;;;;;;19.48;30.95;93441.25;5024218;28;20516;-79
2023/04/01 11:15:20;;;;;;;8.25;2.97;;;;;;;19.43;30.76;93450.47;5024646;28;20062;-80
2023/04/01 11:18:13;;;;;;;9.15;3.00;;;;;;;19.36;30.15;93445.50;5003158;28;20042;-79
2023/04/01 11:20:49;;;;;;;5.60;2.75;;;;;;;19.25;30.40;93440.88;5024332;28;20551;-79
2023/04/01 11:23:27;;;;;;;11.45;3.13;;;;;;;19.11;30.83;93469.94;5030384;28;20021;-80
2023/04/01 11:26:03;;;;;;;4.03;3.00;;;;;;;18.83;31.01;93487.03;5024895;28;20033;-80
2023/04/01 11:28:47;;;;;;;8.13;3.97;;;;;;;18.75;31.81;93488.88;5022877;28;20031;-80
2023/04/01 11:31:29;;;;;;;13.00;5.25;;;;;;;18.73;32.97;93511.69;5024780;28;20040;-80
2023/04/01 11:34:16;;;;;;;5.00;2.80;;;;;;;18.44;33.10;93535.50;5022970;28;20035;-80
2023/04/01 11:37:06;;;;;;;14.63;7.72;;;;;;;17.81;35.69;93560.88;5022660;28;20033;-78
2023/04/01 11:40:04;;;;;;;6.85;1.80;;;;;;;17.22;39.66;93588.00;5024096;28;20224;-79
2023/04/01 11:42:49;;;;;;;8.13;2.40;;;;;;;16.54;44.36;93631.09;5024020;28;20021;-79
2023/04/01 11:45:47;;;;;;;5.43;2.10;;;;;;;16.00;48.05;93651.53;5022956;28;20063;-80
2023/04/01 11:48:27;;;;;;;6.72;2.60;;;;;;;15.32;50.39;93666.47;5010082;28;20069;-80
2023/04/01 11:51:02;;;;;;;10.50;3.33;;;;;;;15.07;50.52;93677.19;5027082;28;20106;-80
2023/04/01 11:53:49;;;;;;;8.75;2.08;;;;;;;14.99;50.24;93676.16;5026309;28;20443;-79
2023/04/01 11:56:32;;;;;;;6.38;2.30;;;;;;;14.88;50.35;93687.16;5027435;28;20455;-81
2023/04/01 11:59:01;;;;;;;;;;;;;;;14.76;50.75;93700.16;5028089;28;20029;-80
2023/04/01 12:01:44;;;;;;;6.95;3.10;;;;;;;14.56;51.38;93703.81;5026356;28;19920;-79